Time;durP1;ratioP1;P1;durP2;ratioP2;P2;SDS_P1;SDS_P2;PMS_P1;PMS_P2;Temp;Humidity;BMP_temperature;BMP_pressure;BME280_temperature;BME280_humidity;BME280_pressure;Samples;Min_cycle;Max_cycle;Signal;HPM_P1;HPM_P2
2021/10/17 00:01:25;;;;;;;40.08;30.63;;;13.60;61.80;;;;;;4952807;28;20086;-64
2021/10/17 00:03:51;;;;;;;38.63;29.70;;;13.60;61.80;;;;;;4950699;28;20039;-64
2021/10/17 00:06:17;;;;;;;38.42;30.52;;;13.50;62.00;;;;;;4954602;28;20147;-64
2021/10/17 00:08:43;;;;;;;36.47;28.40;;;13.50;62.10;;;;;;4951133;28;20043;-64
2021/10/17 00:11:09;;;;;;;37.20;29.02;;;13.50;62.40;;;;;;4951583;28;20507;-64
2021/10/17 00:13:35;;;;;;;39.35;29.40;;;13.50;62.50;;;;;;4951728;28;20041;-64
2021/10/17 00:16:00;;;;;;;39.30;30.55;;;13.50;62.80;;;;;;4953127;28;20054;-64
2021/10/17 00:18:26;;;;;;;37.72;28.45;;;13.50;63.10;;;;;;4952532;28;20039;-64
2021/10/17 00:20:52;;;;;;;37.05;28.33;;;13.50;64.00;;;;;;4953101;28;20501;-64
2021/10/17 00:23:18;;;;;;;39.70;29.60;;;13.40;64.10;;;;;;4948715;28;21037;-64
2021/10/17 00:25:43;;;;;;;37.70;29.38;;;13.50;63.60;;;;;;4957197;28;20039;-64
2021/10/17 00:28:09;;;;;;;37.42;29.13;;;13.40;63.20;;;;;;4957464;29;20050;-64
2021/10/17 00:30:34;;;;;;;33.60;27.55;;;13.50;62.50;;;;;;4955654;28;20122;-64
2021/10/17 00:33:00;;;;;;;38.25;29.92;;;13.40;62.50;;;;;;4954795;28;20040;-64
2021/10/17 00:35:26;;;;;;;37.70;28.63;;;13.40;62.50;;;;;;4952742;28;20044;-64
2021/10/17 00:37:52;;;;;;;40.85;29.10;;;13.40;62.00;;;;;;4951465;28;20042;-64
2021/10/17 00:40:21;;;;;;;39.25;29.23;;;13.40;62.20;;;;;;4947870;28;20397;-64
2021/10/17 00:42:48;;;;;;;38.08;29.23;;;13.30;62.00;;;;;;4957157;28;20027;-64
2021/10/17 00:45:17;;;;;;;38.53;29.10;;;13.40;62.80;;;;;;4951848;28;20031;-64
2021/10/17 00:47:43;;;;;;;36.67;29.17;;;13.40;63.10;;;;;;4954683;28;20039;-64
2021/10/17 00:50:09;;;;;;;39.13;28.48;;;13.30;62.70;;;;;;4951011;28;20102;-64
2021/10/17 00:52:36;;;;;;;40.25;29.65;;;13.30;63.00;;;;;;4944785;28;20409;-64
2021/10/17 00:55:04;;;;;;;35.58;29.27;;;13.20;63.40;;;;;;4953207;28;20046;-63
2021/10/17 00:57:31;;;;;;;36.80;27.25;;;13.40;63.20;;;;;;4956779;28;20412;-64
2021/10/17 00:59:56;;;;;;;36.50;28.98;;;13.30;62.60;;;;;;4956958;29;20039;-64
2021/10/17 01:02:22;;;;;;;36.20;26.90;;;13.30;61.60;;;;;;4944797;28;20041;-64
2021/10/17 01:04:47;;;;;;;38.17;28.13;;;13.30;61.20;;;;;;4956210;29;20035;-64
2021/10/17 01:07:13;;;;;;;36.38;28.80;;;13.30;60.60;;;;;;4955842;29;20051;-64
2021/10/17 01:09:39;;;;;;;38.42;28.73;;;13.30;61.30;;;;;;4956706;29;20027;-64
2021/10/17 01:12:06;;;;;;;36.28;28.08;;;13.30;61.00;;;;;;4953935;28;20118;-64
2021/10/17 01:14:32;;;;;;;35.67;27.55;;;13.40;61.10;;;;;;4951143;28;20505;-64
2021/10/17 01:16:57;;;;;;;37.85;28.17;;;13.30;60.90;;;;;;4952331;28;20058;-64
2021/10/17 01:19:23;;;;;;;35.47;27.25;;;13.30;61.00;;;;;;4954930;28;20035;-64
2021/10/17 01:21:50;;;;;;;37.92;28.75;;;13.30;61.20;;;;;;4955251;28;20062;-64
2021/10/17 01:24:17;;;;;;;40.08;28.30;;;13.30;61.00;;;;;;4956897;29;20038;-64
2021/10/17 01:26:44;;;;;;;40.05;29.25;;;13.30;61.30;;;;;;4956263;28;20032;-65
2021/10/17 01:29:10;;;;;;;40.13;28.63;;;13.30;61.20;;;;;;4956903;28;20035;-64
2021/10/17 01:31:45;;;;;;;39.13;27.92;;;13.30;61.20;;;;;;4954201;28;20039;-64
2021/10/17 01:34:12;;;;;;;37.67;28.42;;;13.30;61.30;;;;;;4955462;28;20035;-64
2021/10/17 01:36:38;;;;;;;41.15;29.27;;;13.30;61.40;;;;;;4955375;28;20047;-64
2021/10/17 01:39:05;;;;;;;35.63;27.75;;;13.20;61.30;;;;;;4952123;29;20031;-65
2021/10/17 01:41:31;;;;;;;35.05;27.95;;;13.30;61.40;;;;;;4944772;28;20115;-65
2021/10/17 01:44:11;;;;;;;36.22;28.38;;;13.20;61.50;;;;;;4954744;28;20169;-65
2021/10/17 01:46:38;;;;;;;35.50;28.10;;;13.20;62.10;;;;;;4954471;28;20176;-65
2021/10/17 01:49:07;;;;;;;35.72;26.55;;;13.20;61.40;;;;;;4953858;28;20031;-65
2021/10/17 01:51:34;;;;;;;38.45;27.20;;;13.20;61.50;;;;;;4933044;29;20068;-65
2021/10/17 01:54:00;;;;;;;35.55;28.65;;;13.20;61.60;;;;;;4955545;28;20050;-65
2021/10/17 01:56:25;;;;;;;33.85;26.48;;;13.20;61.80;;;;;;4954532;28;20052;-65
2021/10/17 01:58:51;;;;;;;33.63;27.15;;;13.20;61.90;;;;;;4948877;28;20071;-65
2021/10/17 02:01:16;;;;;;;41.67;30.00;;;13.20;61.80;;;;;;4936075;29;20497;-65
2021/10/17 02:03:42;;;;;;;39.92;30.15;;;13.10;61.70;;;;;;4931133;29;20142;-65
2021/10/17 02:06:08;;;;;;;40.42;30.48;;;13.00;62.30;;;;;;4937313;28;20045;-65
2021/10/17 02:08:33;;;;;;;40.50;31.63;;;13.00;62.80;;;;;;4956184;28;20450;-65
2021/10/17 02:10:59;;;;;;;42.22;30.02;;;13.00;63.50;;;;;;4951254;28;20095;-65
2021/10/17 02:13:25;;;;;;;37.53;31.33;;;13.00;64.60;;;;;;4954822;28;20047;-65
2021/10/17 02:15:51;;;;;;;41.78;29.48;;;13.00;65.10;;;;;;4952520;28;20098;-65
2021/10/17 02:18:16;;;;;;;38.17;29.25;;;13.00;65.50;;;;;;4955072;28;20043;-65
2021/10/17 02:20:42;;;;;;;40.47;29.65;;;13.00;65.90;;;;;;4932231;28;20046;-65
2021/10/17 02:23:08;;;;;;;39.28;28.83;;;13.10;66.00;;;;;;4955014;28;20123;-65
2021/10/17 02:25:34;;;;;;;37.17;29.30;;;13.10;66.40;;;;;;4954908;28;20043;-65
2021/10/17 02:28:00;;;;;;;36.67;28.85;;;13.10;66.80;;;;;;4944399;28;20082;-65
2021/10/17 02:30:26;;;;;;;39.97;28.85;;;13.00;66.40;;;;;;4953401;28;20481;-65
2021/10/17 02:32:52;;;;;;;33.03;28.02;;;13.00;66.70;;;;;;4954696;28;20050;-65
2021/10/17 02:35:18;;;;;;;34.72;28.15;;;13.10;67.00;;;;;;4953925;28;20097;-65
2021/10/17 02:37:44;;;;;;;34.55;27.33;;;13.00;67.10;;;;;;4950965;28;20440;-65
2021/10/17 02:40:09;;;;;;;38.15;28.58;;;13.00;67.50;;;;;;4954799;29;20032;-65
2021/10/17 02:42:35;;;;;;;33.60;26.52;;;13.00;67.90;;;;;;4953302;28;20035;-65
2021/10/17 02:45:02;;;;;;;33.45;26.88;;;13.00;68.00;;;;;;4953323;28;20508;-65
2021/10/17 02:47:28;;;;;;;32.70;26.05;;;13.00;68.90;;;;;;4948660;28;20035;-65
2021/10/17 02:49:53;;;;;;;34.70;25.63;;;13.00;68.90;;;;;;4946875;28;20039;-65
2021/10/17 02:52:19;;;;;;;35.25;26.30;;;13.00;69.70;;;;;;4949437;28;20078;-65
2021/10/17 02:54:45;;;;;;;36.65;29.20;;;13.00;71.10;;;;;;4954980;28;20112;-65
2021/10/17 02:57:10;;;;;;;37.10;29.58;;;12.90;71.20;;;;;;4953118;28;20035;-65
2021/10/17 02:59:36;;;;;;;40.92;29.63;;;12.80;72.00;;;;;;4948021;29;20114;-65
2021/10/17 03:02:02;;;;;;;37.22;28.17;;;12.70;69.70;;;;;;4946636;28;20044;-65
2021/10/17 03:04:27;;;;;;;34.80;28.23;;;12.80;67.10;;;;;;4954488;28;20043;-65
2021/10/17 03:06:53;;;;;;;39.85;29.35;;;12.70;67.50;;;;;;4953797;28;20047;-65
2021/10/17 03:09:18;;;;;;;38.50;28.17;;;12.80;68.60;;;;;;4954317;28;20042;-65
2021/10/17 03:11:44;;;;;;;37.47;30.13;;;12.80;69.10;;;;;;4948736;28;20437;-65
2021/10/17 03:14:09;;;;;;;37.30;28.52;;;12.80;70.00;;;;;;4947062;29;20039;-65
2021/10/17 03:16:35;;;;;;;38.20;30.10;;;12.80;69.30;;;;;;4948812;28;20086;-65
2021/10/17 03:19:01;;;;;;;39.03;30.02;;;12.80;69.80;;;;;;4954229;28;20043;-65
2021/10/17 03:21:26;;;;;;;38.67;29.08;;;12.70;71.20;;;;;;4934286;28;20043;-65
2021/10/17 03:23:52;;;;;;;38.95;28.40;;;12.70;72.00;;;;;;4953877;28;20045;-65
2021/10/17 03:26:19;;;;;;;37.10;29.23;;;12.80;69.70;;;;;;4953503;29;20046;-65
2021/10/17 03:28:45;;;;;;;36.22;29.50;;;12.70;70.30;;;;;;4954035;28;20040;-64
2021/10/17 03:31:11;;;;;;;38.95;30.55;;;12.70;71.60;;;;;;4949261;28;20071;-64
2021/10/17 03:33:36;;;;;;;39.63;29.23;;;12.70;70.50;;;;;;4952124;28;20046;-65
2021/10/17 03:36:04;;;;;;;36.85;28.60;;;12.70;70.40;;;;;;4951943;29;20417;-64
2021/10/17 03:38:30;;;;;;;37.35;29.13;;;12.70;70.70;;;;;;4953975;28;20035;-64
2021/10/17 03:40:56;;;;;;;38.53;29.20;;;12.70;70.80;;;;;;4952731;29;20039;-64
2021/10/17 03:43:21;;;;;;;39.40;28.05;;;12.60;70.00;;;;;;4953998;28;20065;-65
2021/10/17 03:45:47;;;;;;;36.65;27.58;;;12.60;70.50;;;;;;4952169;29;20384;-64
2021/10/17 03:48:13;;;;;;;35.53;28.25;;;12.60;70.40;;;;;;4953228;28;20090;-64
2021/10/17 03:50:39;;;;;;;35.03;27.55;;;12.70;70.10;;;;;;4931258;29;20117;-64
2021/10/17 03:53:04;;;;;;;37.67;29.60;;;12.70;70.20;;;;;;4954066;28;20027;-64
2021/10/17 03:55:30;;;;;;;37.33;29.23;;;12.70;70.60;;;;;;4953099;28;20544;-64
2021/10/17 03:57:56;;;;;;;36.55;27.65;;;12.70;70.80;;;;;;4959804;28;20110;-64
2021/10/17 04:00:22;;;;;;;35.03;26.65;;;12.60;71.00;;;;;;4956711;28;20465;-64
2021/10/17 04:02:48;;;;;;;39.33;30.27;;;12.60;71.60;;;;;;4949957;28;20050;-64
2021/10/17 04:05:14;;;;;;;36.45;28.35;;;12.70;72.10;;;;;;4941031;29;20038;-64
2021/10/17 04:07:40;;;;;;;40.53;28.20;;;12.70;73.30;;;;;;4951742;28;20043;-65
2021/10/17 04:10:06;;;;;;;33.10;26.75;;;12.60;74.10;;;;;;4957076;29;20550;-64
2021/10/17 04:12:32;;;;;;;35.60;28.35;;;12.50;70.30;;;;;;4948132;28;20082;-64
2021/10/17 04:14:58;;;;;;;36.08;28.50;;;12.50;70.80;;;;;;4956072;28;20064;-64
2021/10/17 04:17:24;;;;;;;38.22;28.73;;;12.50;71.30;;;;;;4948422;28;20417;-64
2021/10/17 04:19:50;;;;;;;36.92;28.25;;;12.50;73.00;;;;;;4954294;28;20031;-64
2021/10/17 04:22:16;;;;;;;32.60;26.83;;;12.50;73.50;;;;;;4955527;29;20045;-64
2021/10/17 04:24:42;;;;;;;36.92;27.15;;;12.50;73.00;;;;;;4958019;28;20396;-64
2021/10/17 04:27:09;;;;;;;38.22;27.02;;;12.60;74.80;;;;;;4951983;28;20163;-64
2021/10/17 04:29:36;;;;;;;34.78;27.80;;;12.50;73.40;;;;;;4943561;28;20031;-64
2021/10/17 04:32:03;;;;;;;38.03;27.25;;;12.50;73.00;;;;;;4950172;28;20031;-64
2021/10/17 04:34:28;;;;;;;34.88;26.85;;;12.50;73.50;;;;;;4944571;28;20470;-64
2021/10/17 04:36:54;;;;;;;33.78;25.67;;;12.60;70.00;;;;;;4954478;28;20054;-64
2021/10/17 04:39:20;;;;;;;37.40;25.88;;;12.40;69.80;;;;;;4938273;29;20114;-64
2021/10/17 04:41:46;;;;;;;33.13;25.30;;;12.40;67.90;;;;;;4951098;28;20550;-64
2021/10/17 04:44:12;;;;;;;31.17;26.13;;;12.40;66.90;;;;;;4956426;28;20533;-64
2021/10/17 04:46:37;;;;;;;35.13;26.92;;;12.40;66.60;;;;;;4956412;28;20036;-64
2021/10/17 04:49:03;;;;;;;37.22;26.92;;;12.50;66.80;;;;;;4937971;28;20043;-64
2021/10/17 04:51:29;;;;;;;36.88;27.55;;;12.40;66.60;;;;;;4947191;28;20035;-64
2021/10/17 04:53:54;;;;;;;32.35;26.00;;;12.40;66.90;;;;;;4941226;28;20119;-64
2021/10/17 04:56:20;;;;;;;33.22;25.27;;;12.40;66.70;;;;;;4943888;28;20053;-64
2021/10/17 04:58:46;;;;;;;35.35;27.77;;;12.40;67.00;;;;;;4955307;28;20027;-64
2021/10/17 05:01:11;;;;;;;35.72;26.98;;;12.50;67.20;;;;;;4953792;28;20061;-64
2021/10/17 05:03:37;;;;;;;34.58;27.25;;;12.40;67.20;;;;;;4951374;28;20052;-64
2021/10/17 05:06:04;;;;;;;34.45;27.23;;;12.40;67.10;;;;;;4931432;28;20790;-64
2021/10/17 05:08:29;;;;;;;36.45;27.35;;;12.40;67.60;;;;;;4940447;28;20031;-64
2021/10/17 05:10:55;;;;;;;36.53;27.15;;;12.40;68.20;;;;;;4948999;28;20461;-64
2021/10/17 05:13:21;;;;;;;34.20;26.85;;;12.40;68.00;;;;;;4946725;28;20072;-64
2021/10/17 05:15:46;;;;;;;37.55;27.80;;;12.30;68.50;;;;;;4949095;28;20046;-64
2021/10/17 05:18:13;;;;;;;35.53;27.73;;;12.30;68.50;;;;;;4954450;28;20059;-64
2021/10/17 05:20:38;;;;;;;37.38;27.80;;;12.20;69.00;;;;;;4953626;29;20070;-64
2021/10/17 05:23:05;;;;;;;37.58;28.30;;;12.30;69.50;;;;;;4955890;28;20039;-64
2021/10/17 05:25:31;;;;;;;37.35;28.75;;;12.30;69.10;;;;;;4954073;28;20032;-65
2021/10/17 05:27:57;;;;;;;36.92;28.90;;;12.30;69.70;;;;;;4934509;28;20143;-64
2021/10/17 05:30:23;;;;;;;37.95;28.20;;;12.30;69.90;;;;;;4951773;28;20039;-64
2021/10/17 05:32:48;;;;;;;38.55;27.73;;;12.20;70.20;;;;;;4956891;28;20130;-64
2021/10/17 05:35:14;;;;;;;36.10;27.67;;;12.20;70.50;;;;;;4953441;28;20461;-64
2021/10/17 05:37:40;;;;;;;40.08;29.17;;;12.10;70.80;;;;;;4956054;28;20051;-64
2021/10/17 05:40:06;;;;;;;34.40;27.95;;;12.20;70.80;;;;;;4938134;29;20436;-64
2021/10/17 05:42:32;;;;;;;36.10;28.20;;;12.20;71.00;;;;;;4954820;28;20055;-64
2021/10/17 05:44:57;;;;;;;38.38;28.73;;;12.10;71.10;;;;;;4949860;28;20051;-64
2021/10/17 05:47:23;;;;;;;37.85;27.92;;;12.10;71.40;;;;;;4955296;28;20430;-64
2021/10/17 05:49:48;;;;;;;35.40;28.70;;;12.10;71.70;;;;;;4955181;28;20070;-64
2021/10/17 05:52:14;;;;;;;35.85;27.85;;;12.10;71.60;;;;;;4954175;28;20043;-64
2021/10/17 05:54:39;;;;;;;35.70;27.15;;;12.10;71.90;;;;;;4956017;29;20043;-64
2021/10/17 05:57:05;;;;;;;39.25;29.77;;;12.10;72.30;;;;;;4954611;28;20050;-64
2021/10/17 05:59:31;;;;;;;33.92;27.48;;;12.00;72.20;;;;;;4955071;28;20043;-64
2021/10/17 06:01:56;;;;;;;37.90;29.50;;;12.00;72.90;;;;;;4953239;28;20102;-64
2021/10/17 06:04:22;;;;;;;39.22;30.02;;;;;;;;;;4954239;28;20039;-65
2021/10/17 06:06:48;;;;;;;36.50;28.88;;;11.90;62.50;;;;;;4954643;28;20050;-64
2021/10/17 06:09:13;;;;;;;37.58;28.48;;;11.90;66.30;;;;;;4954184;28;20400;-65
2021/10/17 06:11:39;;;;;;;37.08;28.38;;;12.00;70.00;;;;;;4952751;28;20031;-64
2021/10/17 06:14:06;;;;;;;38.30;28.30;;;12.00;80.10;;;;;;4950570;28;20090;-65
2021/10/17 06:16:32;;;;;;;35.22;27.98;;;;;;;;;;4954617;28;20047;-64
2021/10/17 06:18:58;;;;;;;41.13;29.85;;;;;;;;;;4954935;29;20075;-64
2021/10/17 06:21:23;;;;;;;38.95;28.77;;;12.10;69.80;;;;;;4950464;28;20043;-64
2021/10/17 06:23:49;;;;;;;36.40;29.98;;;12.10;70.60;;;;;;4954472;28;20496;-64
2021/10/17 06:26:14;;;;;;;40.72;29.75;;;12.10;70.70;;;;;;4936812;28;20043;-65
2021/10/17 06:28:40;;;;;;;36.28;29.33;;;12.20;70.60;;;;;;4930308;29;20058;-64
2021/10/17 06:31:06;;;;;;;37.08;29.15;;;12.20;70.10;;;;;;4949645;28;20073;-64
2021/10/17 06:33:31;;;;;;;37.45;29.88;;;12.30;70.60;;;;;;4942338;28;20059;-64
2021/10/17 06:35:57;;;;;;;36.75;28.10;;;12.30;70.50;;;;;;4948325;28;20126;-64
2021/10/17 06:38:22;;;;;;;37.47;29.33;;;12.30;70.60;;;;;;4948221;28;20110;-64
2021/10/17 06:40:48;;;;;;;37.13;29.35;;;12.30;70.30;;;;;;4949720;28;20118;-64
2021/10/17 06:43:13;;;;;;;36.83;29.70;;;12.30;70.60;;;;;;4953219;28;20123;-64
2021/10/17 06:45:39;;;;;;;36.42;29.08;;;12.30;70.60;;;;;;4953295;28;20087;-64
2021/10/17 06:48:05;;;;;;;39.75;30.35;;;12.40;70.60;;;;;;4953899;28;20497;-64
2021/10/17 06:50:30;;;;;;;40.33;30.17;;;12.50;71.40;;;;;;4953235;28;20126;-65
2021/10/17 06:52:57;;;;;;;38.60;29.42;;;12.40;70.70;;;;;;4953209;28;20045;-64
2021/10/17 06:55:22;;;;;;;42.58;29.83;;;12.50;70.80;;;;;;4952362;28;20066;-64
2021/10/17 06:57:48;;;;;;;37.38;29.15;;;12.40;71.00;;;;;;4951971;28;20039;-64
2021/10/17 07:00:14;;;;;;;36.08;30.10;;;12.50;71.20;;;;;;4952918;28;20500;-65
2021/10/17 07:02:39;;;;;;;36.75;28.08;;;12.50;71.20;;;;;;4947995;29;20031;-65
2021/10/17 07:05:06;;;;;;;34.40;29.25;;;12.60;71.30;;;;;;4953597;29;20330;-65
2021/10/17 07:07:32;;;;;;;39.53;30.13;;;12.60;71.40;;;;;;4941937;29;20463;-64
2021/10/17 07:09:58;;;;;;;39.88;30.20;;;12.50;71.30;;;;;;4952333;29;20396;-64
2021/10/17 07:12:24;;;;;;;39.70;31.02;;;12.70;71.60;;;;;;4951530;28;20046;-65
2021/10/17 07:14:52;;;;;;;36.55;28.95;;;12.70;71.60;;;;;;4936273;29;20038;-64
2021/10/17 07:17:18;;;;;;;42.30;31.27;;;12.70;72.10;;;;;;4952359;29;20700;-64
2021/10/17 07:19:44;;;;;;;40.30;29.70;;;12.70;72.10;;;;;;4952482;29;20043;-65
2021/10/17 07:22:09;;;;;;;42.28;31.33;;;12.80;72.10;;;;;;4933730;29;20082;-65
2021/10/17 07:24:35;;;;;;;43.47;32.72;;;12.70;72.70;;;;;;4935294;29;20044;-65
2021/10/17 07:27:00;;;;;;;39.85;32.00;;;12.70;72.80;;;;;;4948418;29;20035;-64
2021/10/17 07:29:27;;;;;;;42.33;30.80;;;12.80;73.30;;;;;;4936561;29;20133;-64
2021/10/17 07:31:53;;;;;;;40.85;32.53;;;;;;;;;;4951360;28;20054;-64
2021/10/17 07:34:19;;;;;;;39.88;31.33;;;;;;;;;;4953152;28;20152;-64
2021/10/17 07:36:45;;;;;;;42.90;32.00;;;;;;;;;;4952999;28;20062;-64
2021/10/17 07:39:11;;;;;;;42.97;32.65;;;12.90;74.40;;;;;;4954337;29;20115;-65
2021/10/17 07:41:39;;;;;;;38.75;32.38;;;12.90;68.00;;;;;;4944136;29;20122;-64
2021/10/17 07:44:06;;;;;;;42.05;32.92;;;12.90;68.30;;;;;;4948915;28;20046;-64
2021/10/17 07:46:33;;;;;;;42.50;33.78;;;12.90;68.40;;;;;;4948300;28;20093;-64
2021/10/17 07:48:59;;;;;;;44.28;33.95;;;12.90;67.90;;;;;;4951877;28;20035;-64
2021/10/17 07:51:26;;;;;;;44.53;35.08;;;13.00;67.80;;;;;;4943890;29;20177;-65
2021/10/17 07:53:52;;;;;;;48.67;35.58;;;13.10;67.80;;;;;;4953155;28;20433;-65
2021/10/17 07:56:18;;;;;;;43.72;34.50;;;13.20;67.50;;;;;;4952724;29;20051;-65
2021/10/17 07:58:43;;;;;;;44.70;34.03;;;13.20;67.40;;;;;;4953339;29;20036;-64
2021/10/17 08:01:09;;;;;;;45.92;35.47;;;13.20;67.80;;;;;;4952113;28;20039;-65
2021/10/17 08:03:35;;;;;;;46.15;35.45;;;13.20;67.70;;;;;;4953451;29;20475;-65
2021/10/17 08:06:01;;;;;;;48.85;36.15;;;13.30;67.40;;;;;;4951471;29;20032;-64
2021/10/17 08:08:26;;;;;;;48.03;36.83;;;13.30;67.20;;;;;;4947407;29;20027;-65
2021/10/17 08:10:52;;;;;;;48.92;37.25;;;13.30;67.40;;;;;;4951887;29;20106;-65
2021/10/17 08:13:18;;;;;;;47.88;36.63;;;13.40;67.80;;;;;;4951524;29;20031;-65
2021/10/17 08:15:43;;;;;;;50.20;39.00;;;13.40;67.20;;;;;;4951369;29;20086;-65
2021/10/17 08:18:09;;;;;;;51.13;37.63;;;13.40;67.00;;;;;;4933853;29;20052;-65
2021/10/17 08:20:35;;;;;;;49.80;37.85;;;13.50;67.40;;;;;;4956558;28;20043;-65
2021/10/17 08:23:00;;;;;;;50.85;39.45;;;13.50;66.90;;;;;;4951319;29;20043;-65
2021/10/17 08:25:26;;;;;;;53.50;38.53;;;13.50;67.00;;;;;;4946426;29;20040;-65
2021/10/17 08:27:51;;;;;;;52.90;38.97;;;13.60;67.00;;;;;;4950184;28;20563;-65
2021/10/17 08:30:17;;;;;;;51.35;39.65;;;13.60;66.40;;;;;;4949681;28;20035;-65
2021/10/17 08:32:43;;;;;;;53.13;40.55;;;13.60;66.30;;;;;;4953155;29;20047;-65
2021/10/17 08:35:09;;;;;;;51.72;40.72;;;13.70;66.20;;;;;;4953132;29;20125;-65
2021/10/17 08:37:34;;;;;;;54.40;41.47;;;13.80;65.80;;;;;;4951917;29;20047;-67
2021/10/17 08:40:01;;;;;;;51.17;38.15;;;13.80;65.90;;;;;;4952619;29;20046;-67
2021/10/17 08:42:26;;;;;;;53.95;39.67;;;13.80;65.10;;;;;;4951873;28;20043;-64
2021/10/17 08:44:55;;;;;;;56.83;40.97;;;13.80;65.40;;;;;;4973148;28;20508;-64
2021/10/17 08:47:26;;;;;;;53.00;40.60;;;13.80;65.20;;;;;;4961964;28;20043;-64
2021/10/17 08:49:52;;;;;;;52.42;39.75;;;13.90;64.90;;;;;;4957798;29;20031;-65
2021/10/17 08:52:17;;;;;;;58.47;42.25;;;14.00;64.70;;;;;;4928360;29;20039;-65
2021/10/17 08:54:46;;;;;;;55.63;40.10;;;14.00;64.90;;;;;;4938641;29;20040;-64
2021/10/17 08:57:12;;;;;;;50.08;39.55;;;14.10;64.50;;;;;;4948628;29;20586;-64
2021/10/17 08:59:43;;;;;;;53.53;41.17;;;14.10;63.30;;;;;;4955356;29;20094;-64
2021/10/17 09:02:14;;;;;;;50.60;40.75;;;14.10;63.90;;;;;;4954011;29;20039;-65
2021/10/17 09:04:41;;;;;;;55.22;42.50;;;14.20;63.90;;;;;;4941502;29;20493;-65
2021/10/17 09:07:20;;;;;;;57.80;43.70;;;14.20;63.70;;;;;;4942084;29;20382;-65
2021/10/17 09:10:06;;;;;;;55.88;42.55;;;14.20;63.30;;;;;;4937366;29;20032;-65
2021/10/17 09:12:33;;;;;;;56.53;42.67;;;14.30;63.60;;;;;;4948978;29;20098;-65
2021/10/17 09:15:25;;;;;;;54.60;40.90;;;14.30;63.10;;;;;;4952604;29;20110;-65
2021/10/17 09:18:09;;;;;;;54.80;41.97;;;14.30;62.20;;;;;;4957180;29;20051;-64
2021/10/17 09:20:47;;;;;;;54.47;41.13;;;14.40;61.70;;;;;;4954920;29;20129;-64
2021/10/17 09:23:16;;;;;;;56.70;40.75;;;14.50;63.00;;;;;;4957233;29;20054;-65
2021/10/17 09:25:41;;;;;;;54.58;42.15;;;14.50;62.40;;;;;;4955896;29;20043;-64
2021/10/17 09:28:28;;;;;;;52.15;40.88;;;14.60;61.80;;;;;;4957201;29;20039;-64
2021/10/17 09:31:02;;;;;;;56.03;42.15;;;14.60;61.20;;;;;;4955833;29;20035;-64
2021/10/17 09:33:27;;;;;;;55.70;41.13;;;14.60;61.30;;;;;;4957067;29;20083;-64
2021/10/17 09:35:53;;;;;;;53.50;41.38;;;14.60;61.60;;;;;;4955707;29;20094;-64
2021/10/17 09:38:22;;;;;;;59.63;43.00;;;14.70;62.00;;;;;;4957189;29;20032;-64
2021/10/17 09:40:48;;;;;;;62.97;46.45;;;14.80;60.20;;;;;;4955912;29;20429;-65
2021/10/17 09:43:26;;;;;;;56.47;42.42;;;14.80;61.00;;;;;;4956694;29;20032;-65
2021/10/17 09:46:12;;;;;;;55.80;42.30;;;14.80;60.50;;;;;;4955653;29;20031;-65
2021/10/17 09:48:38;;;;;;;51.03;39.28;;;15.00;59.10;;;;;;4957054;29;20069;-65
2021/10/17 09:51:06;;;;;;;55.20;40.95;;;15.00;59.90;;;;;;4955287;29;20090;-65
2021/10/17 09:53:47;;;;;;;50.85;38.70;;;15.10;58.40;;;;;;4956613;29;20102;-65
2021/10/17 09:56:22;;;;;;;49.00;38.60;;;15.10;57.10;;;;;;4955475;28;20114;-65
2021/10/17 09:58:48;;;;;;;49.45;37.88;;;15.10;57.00;;;;;;4956554;29;20043;-64
2021/10/17 10:01:14;;;;;;;52.38;39.90;;;15.10;57.40;;;;;;4955466;29;20086;-65
2021/10/17 10:03:42;;;;;;;51.25;39.92;;;15.20;57.20;;;;;;4956642;29;20042;-65
2021/10/17 10:06:10;;;;;;;51.42;39.28;;;15.30;56.80;;;;;;4955297;29;20039;-65
2021/10/17 10:08:37;;;;;;;50.88;38.03;;;15.30;56.70;;;;;;4956355;29;20047;-65
2021/10/17 10:11:02;;;;;;;50.80;36.95;;;15.30;56.20;;;;;;4955202;29;20078;-65
2021/10/17 10:13:29;;;;;;;48.25;37.15;;;15.30;56.20;;;;;;4956166;29;20066;-65
2021/10/17 10:15:54;;;;;;;43.90;34.83;;;15.40;54.80;;;;;;4953143;29;20069;-65
2021/10/17 10:18:22;;;;;;;45.20;36.00;;;15.40;55.40;;;;;;4956076;29;20063;-65
2021/10/17 10:20:48;;;;;;;52.75;38.10;;;15.50;53.00;;;;;;4955101;29;20035;-65
2021/10/17 10:23:14;;;;;;;49.80;37.88;;;15.50;53.90;;;;;;4956062;29;20046;-65
2021/10/17 10:25:42;;;;;;;49.80;36.55;;;15.60;53.40;;;;;;4925597;29;20043;-65
2021/10/17 10:28:12;;;;;;;46.60;35.08;;;15.70;54.70;;;;;;4953883;29;20035;-66
2021/10/17 10:30:38;;;;;;;43.03;35.45;;;15.80;53.70;;;;;;4955019;28;20047;-66
2021/10/17 10:33:20;;;;;;;47.33;36.03;;;15.90;52.50;;;;;;4953550;29;20043;-66
2021/10/17 10:36:05;;;;;;;44.50;33.92;;;15.90;49.40;;;;;;4933218;29;20048;-66
2021/10/17 10:39:04;;;;;;;47.85;35.15;;;16.00;49.80;;;;;;4938312;29;20055;-66
2021/10/17 10:41:31;;;;;;;44.85;34.38;;;16.10;49.10;;;;;;4911985;29;20035;-66
2021/10/17 10:44:18;;;;;;;47.83;35.38;;;16.10;48.50;;;;;;4955245;29;20082;-66
2021/10/17 10:46:44;;;;;;;45.33;34.40;;;16.10;47.70;;;;;;4952718;29;20039;-66
2021/10/17 10:49:10;;;;;;;44.17;34.10;;;16.10;49.10;;;;;;4951685;29;20166;-66
2021/10/17 10:51:40;;;;;;;44.72;33.95;;;16.20;48.10;;;;;;4955139;29;20109;-65
2021/10/17 10:54:07;;;;;;;47.72;34.40;;;16.20;48.80;;;;;;4951040;29;20050;-65
2021/10/17 10:56:43;;;;;;;41.05;32.00;;;16.40;47.70;;;;;;4953626;29;20063;-65
2021/10/17 10:59:09;;;;;;;45.78;34.67;;;16.50;47.20;;;;;;4936042;29;20131;-65
2021/10/17 11:02:14;;;;;;;43.83;34.20;;;16.60;48.20;;;;;;4953603;29;20392;-66
2021/10/17 11:04:45;;;;;;;43.80;34.47;;;16.50;46.10;;;;;;4932451;29;20138;-66
2021/10/17 11:07:40;;;;;;;47.53;34.55;;;16.60;47.30;;;;;;4955052;28;20032;-66
2021/10/17 11:10:25;;;;;;;47.85;36.42;;;16.60;46.70;;;;;;4954250;29;20117;-66
2021/10/17 11:12:58;;;;;;;44.90;34.50;;;16.70;46.10;;;;;;4953993;29;20042;-66
2021/10/17 11:15:31;;;;;;;49.70;34.30;;;16.70;47.30;;;;;;4953601;29;20086;-65
2021/10/17 11:17:58;;;;;;;46.47;34.60;;;16.90;47.10;;;;;;4955049;29;20126;-65
2021/10/17 11:20:31;;;;;;;50.78;36.90;;;17.00;46.60;;;;;;4951354;29;20035;-66
2021/10/17 11:22:57;;;;;;;48.20;33.72;;;17.10;44.60;;;;;;4953791;29;20186;-65
2021/10/17 11:25:25;;;;;;;47.35;33.38;;;17.10;46.80;;;;;;4951713;29;20032;-65
2021/10/17 11:27:52;;;;;;;43.33;33.75;;;17.00;46.70;;;;;;4936369;29;20438;-65
2021/10/17 11:30:34;;;;;;;47.47;32.25;;;17.00;47.40;;;;;;4951150;29;20031;-64
2021/10/17 11:33:15;;;;;;;42.70;32.20;;;17.10;47.40;;;;;;4954326;29;20106;-64
2021/10/17 11:35:41;;;;;;;43.47;32.97;;;17.20;46.10;;;;;;4953714;29;20058;-64
2021/10/17 11:38:06;;;;;;;42.75;33.00;;;17.20;48.30;;;;;;4954890;29;20031;-64
2021/10/17 11:40:35;;;;;;;44.08;31.30;;;17.40;47.20;;;;;;4953515;29;20202;-64
2021/10/17 11:43:06;;;;;;;46.55;34.00;;;17.30;47.60;;;;;;4954786;29;20163;-64
2021/10/17 11:45:43;;;;;;;42.17;32.55;;;17.30;47.40;;;;;;4952488;28;20389;-64
2021/10/17 11:48:13;;;;;;;39.50;31.05;;;17.40;47.80;;;;;;4954739;29;20046;-64
2021/10/17 11:50:48;;;;;;;44.70;33.30;;;17.60;46.20;;;;;;4953665;29;20501;-64
2021/10/17 11:53:16;;;;;;;40.72;32.17;;;17.60;46.40;;;;;;4954816;29;20039;-64
2021/10/17 11:55:50;;;;;;;41.65;31.30;;;17.50;46.80;;;;;;4952825;29;20047;-64
2021/10/17 11:58:23;;;;;;;42.88;32.45;;;17.50;47.50;;;;;;4937468;29;20511;-64
2021/10/17 12:00:51;;;;;;;44.55;31.52;;;17.60;47.30;;;;;;4927041;29;20119;-64
2021/10/17 12:03:21;;;;;;;39.97;31.55;;;17.70;48.00;;;;;;4935672;29;20232;-64
2021/10/17 12:05:48;;;;;;;43.05;31.05;;;17.80;48.30;;;;;;4945140;29;20048;-64
2021/10/17 12:08:25;;;;;;;41.38;30.02;;;17.80;49.50;;;;;;4954669;29;20044;-64
2021/10/17 12:10:55;;;;;;;46.10;30.60;;;;;;;;;;4953308;29;20463;-64
2021/10/17 12:13:21;;;;;;;42.28;31.17;;;;;;;;;;4954341;29;20541;-64
2021/10/17 12:15:47;;;;;;;41.17;30.45;;;18.00;51.00;;;;;;4951464;29;20051;-64
2021/10/17 12:18:12;;;;;;;41.95;31.88;;;18.10;51.50;;;;;;4954348;29;20051;-64
2021/10/17 12:20:38;;;;;;;44.97;32.70;;;18.20;52.90;;;;;;4956085;28;20118;-64
2021/10/17 12:23:04;;;;;;;42.03;32.22;;;18.40;50.40;;;;;;4957391;28;20043;-64
2021/10/17 12:25:30;;;;;;;40.10;31.25;;;18.40;51.70;;;;;;4955797;29;20485;-64
2021/10/17 12:27:56;;;;;;;43.78;32.33;;;18.30;54.90;;;;;;4940356;29;20050;-63
2021/10/17 12:30:28;;;;;;;39.70;29.65;;;18.30;55.10;;;;;;4957114;29;20047;-64
2021/10/17 12:32:55;;;;;;;38.08;29.08;;;18.50;48.90;;;;;;4940163;29;20049;-64